sensor_id;sensor_type;location;lat;lon;timestamp;temperature;humidity
21568;DHT22;10944;42.590;12.630;2023-01-08T00:02:16;9.30;99.90
21568;DHT22;10944;42.590;12.630;2023-01-08T00:04:42;9.30;99.90
21568;DHT22;10944;42.590;12.630;2023-01-08T00:07:08;9.30;99.90
21568;DHT22;10944;42.590;12.630;2023-01-08T00:09:33;9.30;99.90
21568;DHT22;10944;42.590;12.630;2023-01-08T00:11:59;9.40;99.90
21568;DHT22;10944;42.590;12.630;2023-01-08T00:14:25;9.40;99.90
21568;DHT22;10944;42.590;12.630;2023-01-08T00:16:51;9.40;99.90
21568;DHT22;10944;42.590;12.630;2023-01-08T00:19:17;9.50;99.90
21568;DHT22;10944;42.590;12.630;2023-01-08T00:21:42;9.50;99.90
21568;DHT22;10944;42.590;12.630;2023-01-08T00:24:08;9.40;99.90
21568;DHT22;10944;42.590;12.630;2023-01-08T00:26:34;9.50;99.90
21568;DHT22;10944;42.590;12.630;2023-01-08T00:28:59;9.70;99.90
21568;DHT22;10944;42.590;12.630;2023-01-08T00:31:25;9.60;99.90
21568;DHT22;10944;42.590;12.630;2023-01-08T00:33:51;9.70;99.90
21568;DHT22;10944;42.590;12.630;2023-01-08T00:36:17;9.70;99.90
21568;DHT22;10944;42.590;12.630;2023-01-08T00:38:44;9.70;99.90
21568;DHT22;10944;42.590;12.630;2023-01-08T00:41:12;9.70;99.90
21568;DHT22;10944;42.590;12.630;2023-01-08T00:43:38;9.70;99.90
21568;DHT22;10944;42.590;12.630;2023-01-08T00:46:04;9.70;99.90
21568;DHT22;10944;42.590;12.630;2023-01-08T00:48:30;9.90;99.90
21568;DHT22;10944;42.590;12.630;2023-01-08T00:51:00;9.90;99.90
21568;DHT22;10944;42.590;12.630;2023-01-08T00:53:26;9.90;99.90
21568;DHT22;10944;42.590;12.630;2023-01-08T00:56:02;9.80;99.90
21568;DHT22;10944;42.590;12.630;2023-01-08T00:58:28;9.90;99.90
21568;DHT22;10944;42.590;12.630;2023-01-08T01:00:54;10.00;99.90
21568;DHT22;10944;42.590;12.630;2023-01-08T01:03:19;9.90;99.90
21568;DHT22;10944;42.590;12.630;2023-01-08T01:05:45;9.90;99.90
21568;DHT22;10944;42.590;12.630;2023-01-08T01:08:10;9.80;99.90
21568;DHT22;10944;42.590;12.630;2023-01-08T01:10:38;9.80;99.90
21568;DHT22;10944;42.590;12.630;2023-01-08T01:13:04;9.80;99.90
21568;DHT22;10944;42.590;12.630;2023-01-08T01:15:30;9.80;99.90
21568;DHT22;10944;42.590;12.630;2023-01-08T01:17:56;9.80;99.90
21568;DHT22;10944;42.590;12.630;2023-01-08T01:20:21;9.70;99.90
21568;DHT22;10944;42.590;12.630;2023-01-08T01:22:48;9.70;99.90
21568;DHT22;10944;42.590;12.630;2023-01-08T01:25:14;9.80;99.90
21568;DHT22;10944;42.590;12.630;2023-01-08T01:27:40;9.70;99.90
21568;DHT22;10944;42.590;12.630;2023-01-08T01:30:08;9.80;99.90
21568;DHT22;10944;42.590;12.630;2023-01-08T01:32:34;9.80;99.90
21568;DHT22;10944;42.590;12.630;2023-01-08T01:35:00;9.90;99.90
21568;DHT22;10944;42.590;12.630;2023-01-08T01:37:26;10.00;99.90
21568;DHT22;10944;42.590;12.630;2023-01-08T01:39:52;10.00;99.90
21568;DHT22;10944;42.590;12.630;2023-01-08T01:42:19;10.10;99.90
21568;DHT22;10944;42.590;12.630;2023-01-08T01:47:37;10.20;99.90
21568;DHT22;10944;42.590;12.630;2023-01-08T01:50:09;10.10;99.90
21568;DHT22;10944;42.590;12.630;2023-01-08T01:53:01;10.00;99.90
21568;DHT22;10944;42.590;12.630;2023-01-08T01:55:26;9.90;99.90
21568;DHT22;10944;42.590;12.630;2023-01-08T01:58:10;9.80;99.90
21568;DHT22;10944;42.590;12.630;2023-01-08T02:00:37;9.70;99.90
21568;DHT22;10944;42.590;12.630;2023-01-08T02:03:03;9.70;99.90
21568;DHT22;10944;42.590;12.630;2023-01-08T02:05:37;9.70;99.90
21568;DHT22;10944;42.590;12.630;2023-01-08T02:08:14;9.70;99.90
21568;DHT22;10944;42.590;12.630;2023-01-08T02:10:54;9.70;99.90
21568;DHT22;10944;42.590;12.630;2023-01-08T02:13:28;9.70;99.90
21568;DHT22;10944;42.590;12.630;2023-01-08T02:16:02;9.70;99.90
21568;DHT22;10944;42.590;12.630;2023-01-08T02:18:51;9.60;99.90
21568;DHT22;10944;42.590;12.630;2023-01-08T02:21:42;9.50;99.90
21568;DHT22;10944;42.590;12.630;2023-01-08T02:24:19;9.50;99.90
21568;DHT22;10944;42.590;12.630;2023-01-08T02:26:49;9.40;99.90
21568;DHT22;10944;42.590;12.630;2023-01-08T02:29:22;9.30;99.90
21568;DHT22;10944;42.590;12.630;2023-01-08T02:31:49;9.30;99.90
21568;DHT22;10944;42.590;12.630;2023-01-08T02:34:15;9.20;99.90
21568;DHT22;10944;42.590;12.630;2023-01-08T02:36:50;9.20;99.90
21568;DHT22;10944;42.590;12.630;2023-01-08T02:39:47;9.20;99.90
21568;DHT22;10944;42.590;12.630;2023-01-08T02:42:48;9.20;99.90
21568;DHT22;10944;42.590;12.630;2023-01-08T02:45:35;9.30;99.90
21568;DHT22;10944;42.590;12.630;2023-01-08T02:51:16;9.30;99.90
21568;DHT22;10944;42.590;12.630;2023-01-08T02:53:38;9.30;99.90
21568;DHT22;10944;42.590;12.630;2023-01-08T02:56:11;9.40;99.90
21568;DHT22;10944;42.590;12.630;2023-01-08T02:58:38;9.40;99.90
21568;DHT22;10944;42.590;12.630;2023-01-08T03:01:07;9.50;99.90
21568;DHT22;10944;42.590;12.630;2023-01-08T03:03:34;9.50;99.90
21568;DHT22;10944;42.590;12.630;2023-01-08T03:06:07;9.50;99.90
21568;DHT22;10944;42.590;12.630;2023-01-08T03:08:37;9.50;99.90
21568;DHT22;10944;42.590;12.630;2023-01-08T03:11:09;9.40;99.90
21568;DHT22;10944;42.590;12.630;2023-01-08T03:13:55;9.40;99.90
21568;DHT22;10944;42.590;12.630;2023-01-08T03:16:46;9.40;99.90
21568;DHT22;10944;42.590;12.630;2023-01-08T03:19:21;9.40;99.90
21568;DHT22;10944;42.590;12.630;2023-01-08T03:21:49;9.40;99.90
21568;DHT22;10944;42.590;12.630;2023-01-08T03:24:19;9.40;99.90
21568;DHT22;10944;42.590;12.630;2023-01-08T03:26:46;9.50;99.90
21568;DHT22;10944;42.590;12.630;2023-01-08T03:29:15;9.50;99.90
21568;DHT22;10944;42.590;12.630;2023-01-08T03:31:43;9.50;99.90
21568;DHT22;10944;42.590;12.630;2023-01-08T03:34:11;9.50;99.90
21568;DHT22;10944;42.590;12.630;2023-01-08T03:36:40;9.50;99.90
21568;DHT22;10944;42.590;12.630;2023-01-08T03:39:24;9.60;99.90
21568;DHT22;10944;42.590;12.630;2023-01-08T03:41:53;9.60;99.90
21568;DHT22;10944;42.590;12.630;2023-01-08T03:44:20;9.70;99.90
21568;DHT22;10944;42.590;12.630;2023-01-08T03:46:49;9.60;99.90
21568;DHT22;10944;42.590;12.630;2023-01-08T03:49:18;9.70;99.90
21568;DHT22;10944;42.590;12.630;2023-01-08T03:51:46;9.80;99.90
21568;DHT22;10944;42.590;12.630;2023-01-08T03:54:14;9.90;99.90
21568;DHT22;10944;42.590;12.630;2023-01-08T03:56:41;9.80;99.90
21568;DHT22;10944;42.590;12.630;2023-01-08T03:59:07;9.80;99.90
21568;DHT22;10944;42.590;12.630;2023-01-08T04:01:32;9.80;99.90
21568;DHT22;10944;42.590;12.630;2023-01-08T04:03:58;9.80;99.90
21568;DHT22;10944;42.590;12.630;2023-01-08T04:06:24;9.70;99.90
21568;DHT22;10944;42.590;12.630;2023-01-08T04:08:50;9.80;99.90
21568;DHT22;10944;42.590;12.630;2023-01-08T04:11:16;9.90;99.90
21568;DHT22;10944;42.590;12.630;2023-01-08T04:13:41;9.90;99.90
21568;DHT22;10944;42.590;12.630;2023-01-08T04:16:07;9.90;99.90
21568;DHT22;10944;42.590;12.630;2023-01-08T04:18:33;9.90;99.90
21568;DHT22;10944;42.590;12.630;2023-01-08T04:20:59;9.80;99.90
21568;DHT22;10944;42.590;12.630;2023-01-08T04:23:25;9.70;99.90
21568;DHT22;10944;42.590;12.630;2023-01-08T04:25:51;9.60;99.90
21568;DHT22;10944;42.590;12.630;2023-01-08T04:28:17;9.50;99.90
21568;DHT22;10944;42.590;12.630;2023-01-08T04:30:43;9.40;99.90
21568;DHT22;10944;42.590;12.630;2023-01-08T04:33:08;9.40;99.90
21568;DHT22;10944;42.590;12.630;2023-01-08T04:35:35;9.50;99.90
21568;DHT22;10944;42.590;12.630;2023-01-08T04:38:00;9.50;99.90
21568;DHT22;10944;42.590;12.630;2023-01-08T04:40:26;9.50;99.90
21568;DHT22;10944;42.590;12.630;2023-01-08T04:42:52;9.50;99.90
21568;DHT22;10944;42.590;12.630;2023-01-08T04:45:18;9.60;99.90
21568;DHT22;10944;42.590;12.630;2023-01-08T04:47:44;9.60;99.90
21568;DHT22;10944;42.590;12.630;2023-01-08T04:50:10;9.70;99.90
21568;DHT22;10944;42.590;12.630;2023-01-08T04:52:35;9.80;99.90
21568;DHT22;10944;42.590;12.630;2023-01-08T04:55:01;9.90;99.90
21568;DHT22;10944;42.590;12.630;2023-01-08T04:57:27;9.90;99.90
21568;DHT22;10944;42.590;12.630;2023-01-08T04:59:52;10.10;99.90
21568;DHT22;10944;42.590;12.630;2023-01-08T05:02:18;10.00;99.90
21568;DHT22;10944;42.590;12.630;2023-01-08T05:04:44;10.00;99.90
21568;DHT22;10944;42.590;12.630;2023-01-08T05:07:09;10.00;99.90
21568;DHT22;10944;42.590;12.630;2023-01-08T05:09:35;9.90;99.90
21568;DHT22;10944;42.590;12.630;2023-01-08T05:12:01;10.00;99.90
21568;DHT22;10944;42.590;12.630;2023-01-08T05:14:26;10.20;99.90
21568;DHT22;10944;42.590;12.630;2023-01-08T05:16:52;10.10;99.90
21568;DHT22;10944;42.590;12.630;2023-01-08T05:19:18;9.90;99.90
21568;DHT22;10944;42.590;12.630;2023-01-08T05:21:43;9.70;99.90
21568;DHT22;10944;42.590;12.630;2023-01-08T05:24:09;9.50;99.90
21568;DHT22;10944;42.590;12.630;2023-01-08T05:26:35;9.30;99.90
21568;DHT22;10944;42.590;12.630;2023-01-08T05:29:01;9.10;99.90
21568;DHT22;10944;42.590;12.630;2023-01-08T05:31:26;8.90;99.90
21568;DHT22;10944;42.590;12.630;2023-01-08T05:33:52;8.80;99.90
21568;DHT22;10944;42.590;12.630;2023-01-08T05:36:18;8.70;99.90
21568;DHT22;10944;42.590;12.630;2023-01-08T05:38:43;8.60;99.90
21568;DHT22;10944;42.590;12.630;2023-01-08T05:41:09;8.50;99.90
21568;DHT22;10944;42.590;12.630;2023-01-08T05:43:35;8.40;99.90
21568;DHT22;10944;42.590;12.630;2023-01-08T05:46:02;8.40;99.90
21568;DHT22;10944;42.590;12.630;2023-01-08T05:48:30;8.60;99.90
21568;DHT22;10944;42.590;12.630;2023-01-08T05:50:56;8.70;99.90
21568;DHT22;10944;42.590;12.630;2023-01-08T05:53:22;8.90;99.90
21568;DHT22;10944;42.590;12.630;2023-01-08T05:55:47;9.10;99.90
21568;DHT22;10944;42.590;12.630;2023-01-08T05:58:13;9.20;99.90
21568;DHT22;10944;42.590;12.630;2023-01-08T06:00:43;9.30;99.90
21568;DHT22;10944;42.590;12.630;2023-01-08T06:03:09;9.40;99.90
21568;DHT22;10944;42.590;12.630;2023-01-08T06:05:34;9.40;99.90
21568;DHT22;10944;42.590;12.630;2023-01-08T06:08:00;9.40;99.90
21568;DHT22;10944;42.590;12.630;2023-01-08T06:10:26;9.30;99.90
21568;DHT22;10944;42.590;12.630;2023-01-08T06:12:52;9.20;99.90
21568;DHT22;10944;42.590;12.630;2023-01-08T06:15:18;9.10;99.90
21568;DHT22;10944;42.590;12.630;2023-01-08T06:17:44;8.90;99.90
21568;DHT22;10944;42.590;12.630;2023-01-08T06:20:10;8.80;99.90
21568;DHT22;10944;42.590;12.630;2023-01-08T06:22:35;8.80;99.90
21568;DHT22;10944;42.590;12.630;2023-01-08T06:25:02;8.80;99.90
21568;DHT22;10944;42.590;12.630;2023-01-08T06:27:28;8.70;99.90
21568;DHT22;10944;42.590;12.630;2023-01-08T06:29:53;8.60;99.90
21568;DHT22;10944;42.590;12.630;2023-01-08T06:32:19;8.50;99.90
21568;DHT22;10944;42.590;12.630;2023-01-08T06:34:45;8.50;99.90
21568;DHT22;10944;42.590;12.630;2023-01-08T06:37:10;8.40;99.90
21568;DHT22;10944;42.590;12.630;2023-01-08T06:39:36;8.30;99.90
21568;DHT22;10944;42.590;12.630;2023-01-08T06:42:02;8.30;99.90
21568;DHT22;10944;42.590;12.630;2023-01-08T06:44:27;8.30;99.90
21568;DHT22;10944;42.590;12.630;2023-01-08T06:46:53;8.30;99.90
21568;DHT22;10944;42.590;12.630;2023-01-08T06:49:19;8.40;99.90
21568;DHT22;10944;42.590;12.630;2023-01-08T06:51:45;8.50;99.90
21568;DHT22;10944;42.590;12.630;2023-01-08T06:54:10;8.50;99.90
21568;DHT22;10944;42.590;12.630;2023-01-08T06:56:36;8.40;99.90
21568;DHT22;10944;42.590;12.630;2023-01-08T06:59:02;8.40;99.90
21568;DHT22;10944;42.590;12.630;2023-01-08T07:01:27;8.40;99.90
21568;DHT22;10944;42.590;12.630;2023-01-08T07:03:54;8.30;99.90
21568;DHT22;10944;42.590;12.630;2023-01-08T07:06:21;8.30;99.90
21568;DHT22;10944;42.590;12.630;2023-01-08T07:08:47;8.20;99.90
21568;DHT22;10944;42.590;12.630;2023-01-08T07:11:14;8.10;99.90
21568;DHT22;10944;42.590;12.630;2023-01-08T07:13:40;8.10;99.90
21568;DHT22;10944;42.590;12.630;2023-01-08T07:16:11;8.10;99.90
21568;DHT22;10944;42.590;12.630;2023-01-08T07:18:37;8.10;99.90
21568;DHT22;10944;42.590;12.630;2023-01-08T07:21:03;8.10;99.90
21568;DHT22;10944;42.590;12.630;2023-01-08T07:23:30;8.20;99.90
21568;DHT22;10944;42.590;12.630;2023-01-08T07:26:02;8.30;99.90
21568;DHT22;10944;42.590;12.630;2023-01-08T07:28:28;8.30;99.90
21568;DHT22;10944;42.590;12.630;2023-01-08T07:30:54;8.20;99.90
21568;DHT22;10944;42.590;12.630;2023-01-08T07:33:20;8.30;99.90
21568;DHT22;10944;42.590;12.630;2023-01-08T07:35:55;8.40;99.90
21568;DHT22;10944;42.590;12.630;2023-01-08T07:38:21;8.50;99.90
21568;DHT22;10944;42.590;12.630;2023-01-08T07:40:48;8.60;99.90
21568;DHT22;10944;42.590;12.630;2023-01-08T07:43:14;8.80;99.90
21568;DHT22;10944;42.590;12.630;2023-01-08T07:45:40;9.10;99.90
21568;DHT22;10944;42.590;12.630;2023-01-08T07:48:06;9.40;99.90
21568;DHT22;10944;42.590;12.630;2023-01-08T07:50:36;9.60;99.90
21568;DHT22;10944;42.590;12.630;2023-01-08T07:53:02;9.70;99.90
21568;DHT22;10944;42.590;12.630;2023-01-08T07:55:29;9.90;99.90
21568;DHT22;10944;42.590;12.630;2023-01-08T07:57:55;10.00;99.90
21568;DHT22;10944;42.590;12.630;2023-01-08T08:00:20;10.30;99.90
21568;DHT22;10944;42.590;12.630;2023-01-08T08:02:46;10.40;99.90
21568;DHT22;10944;42.590;12.630;2023-01-08T08:05:12;10.50;99.90
21568;DHT22;10944;42.590;12.630;2023-01-08T08:07:38;10.60;99.90
21568;DHT22;10944;42.590;12.630;2023-01-08T08:10:04;10.70;99.90
21568;DHT22;10944;42.590;12.630;2023-01-08T08:12:30;10.70;99.90
21568;DHT22;10944;42.590;12.630;2023-01-08T08:14:56;10.80;99.90
21568;DHT22;10944;42.590;12.630;2023-01-08T08:17:22;10.90;99.90
21568;DHT22;10944;42.590;12.630;2023-01-08T08:19:48;11.00;99.90
21568;DHT22;10944;42.590;12.630;2023-01-08T08:22:13;11.00;99.90
21568;DHT22;10944;42.590;12.630;2023-01-08T08:24:39;11.10;99.90
21568;DHT22;10944;42.590;12.630;2023-01-08T08:27:05;11.10;99.90
21568;DHT22;10944;42.590;12.630;2023-01-08T08:29:31;11.10;99.90
21568;DHT22;10944;42.590;12.630;2023-01-08T08:31:56;11.10;99.90
21568;DHT22;10944;42.590;12.630;2023-01-08T08:34:22;11.20;99.90
21568;DHT22;10944;42.590;12.630;2023-01-08T08:36:48;11.20;99.90
21568;DHT22;10944;42.590;12.630;2023-01-08T08:39:14;11.20;99.90
21568;DHT22;10944;42.590;12.630;2023-01-08T08:41:40;11.30;99.90
21568;DHT22;10944;42.590;12.630;2023-01-08T08:44:08;11.40;99.90
21568;DHT22;10944;42.590;12.630;2023-01-08T08:46:34;11.50;99.90
21568;DHT22;10944;42.590;12.630;2023-01-08T08:49:00;11.60;99.90
21568;DHT22;10944;42.590;12.630;2023-01-08T08:51:26;11.60;99.90
21568;DHT22;10944;42.590;12.630;2023-01-08T08:53:52;11.50;99.90
21568;DHT22;10944;42.590;12.630;2023-01-08T08:56:18;11.50;99.90
21568;DHT22;10944;42.590;12.630;2023-01-08T08:58:44;11.60;99.90
21568;DHT22;10944;42.590;12.630;2023-01-08T09:01:10;11.70;99.90
21568;DHT22;10944;42.590;12.630;2023-01-08T09:03:36;11.90;99.90
21568;DHT22;10944;42.590;12.630;2023-01-08T09:06:01;12.00;99.90
21568;DHT22;10944;42.590;12.630;2023-01-08T09:08:27;12.10;99.90
21568;DHT22;10944;42.590;12.630;2023-01-08T09:10:53;12.10;99.90
21568;DHT22;10944;42.590;12.630;2023-01-08T09:13:19;12.10;99.90
21568;DHT22;10944;42.590;12.630;2023-01-08T09:15:45;12.00;99.90
21568;DHT22;10944;42.590;12.630;2023-01-08T09:18:11;11.90;99.90
21568;DHT22;10944;42.590;12.630;2023-01-08T09:20:37;11.90;99.90
21568;DHT22;10944;42.590;12.630;2023-01-08T09:23:02;11.80;99.90
21568;DHT22;10944;42.590;12.630;2023-01-08T09:25:29;11.90;99.90
21568;DHT22;10944;42.590;12.630;2023-01-08T09:28:03;12.00;99.90
21568;DHT22;10944;42.590;12.630;2023-01-08T09:30:30;12.10;99.90
21568;DHT22;10944;42.590;12.630;2023-01-08T09:33:00;12.20;99.90
21568;DHT22;10944;42.590;12.630;2023-01-08T09:35:26;12.20;99.90
21568;DHT22;10944;42.590;12.630;2023-01-08T09:37:53;12.30;99.90
21568;DHT22;10944;42.590;12.630;2023-01-08T09:40:21;12.40;99.90
21568;DHT22;10944;42.590;12.630;2023-01-08T09:42:54;12.60;99.90
21568;DHT22;10944;42.590;12.630;2023-01-08T09:45:31;12.80;99.90
21568;DHT22;10944;42.590;12.630;2023-01-08T09:48:01;12.90;99.90
21568;DHT22;10944;42.590;12.630;2023-01-08T09:50:28;13.00;99.90
21568;DHT22;10944;42.590;12.630;2023-01-08T09:52:56;13.20;99.90
21568;DHT22;10944;42.590;12.630;2023-01-08T09:55:22;13.20;99.90
21568;DHT22;10944;42.590;12.630;2023-01-08T09:57:48;13.20;99.90
21568;DHT22;10944;42.590;12.630;2023-01-08T10:00:21;13.10;99.90
21568;DHT22;10944;42.590;12.630;2023-01-08T10:02:48;13.00;99.90
21568;DHT22;10944;42.590;12.630;2023-01-08T10:05:16;12.80;99.90
21568;DHT22;10944;42.590;12.630;2023-01-08T10:07:43;12.80;99.90
21568;DHT22;10944;42.590;12.630;2023-01-08T10:10:18;12.70;99.90
21568;DHT22;10944;42.590;12.630;2023-01-08T10:12:46;12.70;99.90
21568;DHT22;10944;42.590;12.630;2023-01-08T10:15:17;12.70;99.90
21568;DHT22;10944;42.590;12.630;2023-01-08T10:20:27;12.80;99.90
21568;DHT22;10944;42.590;12.630;2023-01-08T10:22:54;12.80;99.90
21568;DHT22;10944;42.590;12.630;2023-01-08T10:25:24;12.80;99.90
21568;DHT22;10944;42.590;12.630;2023-01-08T10:28:01;12.90;99.90
21568;DHT22;10944;42.590;12.630;2023-01-08T10:33:01;13.20;99.90
21568;DHT22;10944;42.590;12.630;2023-01-08T10:35:51;13.10;99.90
21568;DHT22;10944;42.590;12.630;2023-01-08T10:38:25;13.10;99.90
21568;DHT22;10944;42.590;12.630;2023-01-08T10:40:51;13.10;99.90
21568;DHT22;10944;42.590;12.630;2023-01-08T10:43:27;13.20;99.90
21568;DHT22;10944;42.590;12.630;2023-01-08T10:46:02;13.20;99.90
21568;DHT22;10944;42.590;12.630;2023-01-08T10:48:37;13.30;99.90
21568;DHT22;10944;42.590;12.630;2023-01-08T10:51:14;13.30;99.90
21568;DHT22;10944;42.590;12.630;2023-01-08T10:53:41;13.40;99.90
21568;DHT22;10944;42.590;12.630;2023-01-08T10:56:21;13.40;99.90
21568;DHT22;10944;42.590;12.630;2023-01-08T10:58:47;13.40;99.90
21568;DHT22;10944;42.590;12.630;2023-01-08T11:03:53;13.50;99.90
21568;DHT22;10944;42.590;12.630;2023-01-08T11:06:25;13.60;99.90
21568;DHT22;10944;42.590;12.630;2023-01-08T11:08:56;13.50;99.90
21568;DHT22;10944;42.590;12.630;2023-01-08T11:11:23;13.50;99.90
21568;DHT22;10944;42.590;12.630;2023-01-08T11:14:00;13.60;99.90
21568;DHT22;10944;42.590;12.630;2023-01-08T11:16:34;13.60;99.90
21568;DHT22;10944;42.590;12.630;2023-01-08T11:19:00;13.70;99.90
21568;DHT22;10944;42.590;12.630;2023-01-08T11:21:28;13.70;99.90
21568;DHT22;10944;42.590;12.630;2023-01-08T11:24:17;13.80;99.90
21568;DHT22;10944;42.590;12.630;2023-01-08T11:29:58;13.80;99.90
21568;DHT22;10944;42.590;12.630;2023-01-08T11:32:48;13.80;99.90
21568;DHT22;10944;42.590;12.630;2023-01-08T11:37:56;13.90;99.90
21568;DHT22;10944;42.590;12.630;2023-01-08T11:40:38;14.00;99.90
21568;DHT22;10944;42.590;12.630;2023-01-08T11:43:10;14.00;99.90
21568;DHT22;10944;42.590;12.630;2023-01-08T12:11:29;14.40;99.90
21568;DHT22;10944;42.590;12.630;2023-01-08T12:22:17;14.40;99.90
21568;DHT22;10944;42.590;12.630;2023-01-08T12:33:08;13.80;99.90
21568;DHT22;10944;42.590;12.630;2023-01-08T12:35:52;13.60;99.90
21568;DHT22;10944;42.590;12.630;2023-01-08T12:38:27;13.50;99.90
21568;DHT22;10944;42.590;12.630;2023-01-08T12:41:00;13.30;99.90
21568;DHT22;10944;42.590;12.630;2023-01-08T12:43:34;13.30;99.90
21568;DHT22;10944;42.590;12.630;2023-01-08T12:46:02;13.20;99.90
21568;DHT22;10944;42.590;12.630;2023-01-08T12:48:32;13.10;99.90
21568;DHT22;10944;42.590;12.630;2023-01-08T12:56:36;13.10;99.90
21568;DHT22;10944;42.590;12.630;2023-01-08T13:02:26;13.00;99.90
21568;DHT22;10944;42.590;12.630;2023-01-08T13:04:55;12.90;99.90
21568;DHT22;10944;42.590;12.630;2023-01-08T13:07:25;12.90;99.90
21568;DHT22;10944;42.590;12.630;2023-01-08T13:10:06;12.90;99.90
21568;DHT22;10944;42.590;12.630;2023-01-08T13:12:35;12.80;99.90
21568;DHT22;10944;42.590;12.630;2023-01-08T13:15:03;12.80;99.90
21568;DHT22;10944;42.590;12.630;2023-01-08T13:17:29;12.80;99.90
21568;DHT22;10944;42.590;12.630;2023-01-08T13:19:59;12.80;99.90
21568;DHT22;10944;42.590;12.630;2023-01-08T13:27:40;12.70;99.90
21568;DHT22;10944;42.590;12.630;2023-01-08T13:32:54;12.60;99.90
21568;DHT22;10944;42.590;12.630;2023-01-08T13:35:28;12.70;99.90
21568;DHT22;10944;42.590;12.630;2023-01-08T13:48:31;12.60;99.90
21568;DHT22;10944;42.590;12.630;2023-01-08T13:50:58;12.60;99.90
21568;DHT22;10944;42.590;12.630;2023-01-08T13:53:24;12.60;99.90
21568;DHT22;10944;42.590;12.630;2023-01-08T13:56:05;12.60;99.90
21568;DHT22;10944;42.590;12.630;2023-01-08T13:58:42;12.70;99.90
21568;DHT22;10944;42.590;12.630;2023-01-08T14:01:09;12.70;99.90
21568;DHT22;10944;42.590;12.630;2023-01-08T14:03:37;12.70;99.90
21568;DHT22;10944;42.590;12.630;2023-01-08T14:06:18;12.80;99.90
21568;DHT22;10944;42.590;12.630;2023-01-08T14:08:54;12.90;99.90
21568;DHT22;10944;42.590;12.630;2023-01-08T14:11:24;12.90;99.90
21568;DHT22;10944;42.590;12.630;2023-01-08T14:13:51;12.80;99.90
21568;DHT22;10944;42.590;12.630;2023-01-08T14:16:18;12.80;99.90
21568;DHT22;10944;42.590;12.630;2023-01-08T14:18:45;12.80;99.90
21568;DHT22;10944;42.590;12.630;2023-01-08T14:21:12;12.80;99.90
21568;DHT22;10944;42.590;12.630;2023-01-08T14:23:48;12.80;99.90
21568;DHT22;10944;42.590;12.630;2023-01-08T14:26:32;12.80;99.90
21568;DHT22;10944;42.590;12.630;2023-01-08T14:29:00;12.80;99.90
21568;DHT22;10944;42.590;12.630;2023-01-08T14:31:28;12.90;99.90
21568;DHT22;10944;42.590;12.630;2023-01-08T14:33:56;12.80;99.90
21568;DHT22;10944;42.590;12.630;2023-01-08T14:36:23;12.90;99.90
21568;DHT22;10944;42.590;12.630;2023-01-08T14:38:48;12.90;99.90
21568;DHT22;10944;42.590;12.630;2023-01-08T14:41:30;12.90;99.90
21568;DHT22;10944;42.590;12.630;2023-01-08T14:44:18;12.90;99.90
21568;DHT22;10944;42.590;12.630;2023-01-08T14:46:44;13.00;99.90
21568;DHT22;10944;42.590;12.630;2023-01-08T14:49:26;13.00;99.90
21568;DHT22;10944;42.590;12.630;2023-01-08T14:51:54;13.00;99.90
21568;DHT22;10944;42.590;12.630;2023-01-08T14:54:27;13.00;99.90
21568;DHT22;10944;42.590;12.630;2023-01-08T14:56:55;12.90;99.90
21568;DHT22;10944;42.590;12.630;2023-01-08T14:59:29;12.90;99.90
21568;DHT22;10944;42.590;12.630;2023-01-08T15:01:59;12.90;99.90
21568;DHT22;10944;42.590;12.630;2023-01-08T15:04:26;12.90;99.90
21568;DHT22;10944;42.590;12.630;2023-01-08T15:07:06;12.90;99.90
21568;DHT22;10944;42.590;12.630;2023-01-08T15:09:34;12.90;99.90
21568;DHT22;10944;42.590;12.630;2023-01-08T15:12:02;12.80;99.90
21568;DHT22;10944;42.590;12.630;2023-01-08T15:14:29;12.80;99.90
21568;DHT22;10944;42.590;12.630;2023-01-08T15:16:57;12.90;99.90
21568;DHT22;10944;42.590;12.630;2023-01-08T15:19:30;12.80;99.90
21568;DHT22;10944;42.590;12.630;2023-01-08T15:22:00;12.80;99.90
21568;DHT22;10944;42.590;12.630;2023-01-08T15:24:35;12.80;99.90
21568;DHT22;10944;42.590;12.630;2023-01-08T15:27:03;12.80;99.90
21568;DHT22;10944;42.590;12.630;2023-01-08T15:29:46;12.80;99.90
21568;DHT22;10944;42.590;12.630;2023-01-08T15:34:41;12.80;99.90
21568;DHT22;10944;42.590;12.630;2023-01-08T15:37:07;12.80;99.90
21568;DHT22;10944;42.590;12.630;2023-01-08T15:39:33;12.80;99.90
21568;DHT22;10944;42.590;12.630;2023-01-08T15:45:01;12.70;99.90
21568;DHT22;10944;42.590;12.630;2023-01-08T15:47:26;12.70;99.90
21568;DHT22;10944;42.590;12.630;2023-01-08T15:49:52;12.60;99.90
21568;DHT22;10944;42.590;12.630;2023-01-08T15:52:22;12.60;99.90
21568;DHT22;10944;42.590;12.630;2023-01-08T15:54:49;12.60;99.90
21568;DHT22;10944;42.590;12.630;2023-01-08T15:57:14;12.50;99.90
21568;DHT22;10944;42.590;12.630;2023-01-08T15:59:40;12.50;99.90
21568;DHT22;10944;42.590;12.630;2023-01-08T16:02:10;12.50;99.90
21568;DHT22;10944;42.590;12.630;2023-01-08T16:04:35;12.50;99.90
21568;DHT22;10944;42.590;12.630;2023-01-08T16:07:01;12.40;99.90
21568;DHT22;10944;42.590;12.630;2023-01-08T16:09:27;12.40;99.90
21568;DHT22;10944;42.590;12.630;2023-01-08T16:11:52;12.40;99.90
21568;DHT22;10944;42.590;12.630;2023-01-08T16:14:18;12.40;99.90
21568;DHT22;10944;42.590;12.630;2023-01-08T16:16:44;12.40;99.90
21568;DHT22;10944;42.590;12.630;2023-01-08T16:19:09;12.40;99.90
21568;DHT22;10944;42.590;12.630;2023-01-08T16:21:35;12.50;99.90
21568;DHT22;10944;42.590;12.630;2023-01-08T16:24:01;12.50;99.90
21568;DHT22;10944;42.590;12.630;2023-01-08T16:26:26;12.50;99.90
21568;DHT22;10944;42.590;12.630;2023-01-08T16:28:52;12.60;99.90
21568;DHT22;10944;42.590;12.630;2023-01-08T16:31:18;12.50;99.90
21568;DHT22;10944;42.590;12.630;2023-01-08T16:33:44;12.50;99.90
21568;DHT22;10944;42.590;12.630;2023-01-08T16:36:10;12.50;99.90
21568;DHT22;10944;42.590;12.630;2023-01-08T16:38:35;12.40;99.90
21568;DHT22;10944;42.590;12.630;2023-01-08T16:41:02;12.40;99.90
21568;DHT22;10944;42.590;12.630;2023-01-08T16:43:29;12.40;99.90
21568;DHT22;10944;42.590;12.630;2023-01-08T16:45:55;12.40;99.90
21568;DHT22;10944;42.590;12.630;2023-01-08T16:48:22;12.40;99.90
21568;DHT22;10944;42.590;12.630;2023-01-08T16:50:48;12.40;99.90
21568;DHT22;10944;42.590;12.630;2023-01-08T16:53:15;12.40;99.90
21568;DHT22;10944;42.590;12.630;2023-01-08T16:55:43;12.40;99.90
21568;DHT22;10944;42.590;12.630;2023-01-08T16:58:09;12.40;99.90
21568;DHT22;10944;42.590;12.630;2023-01-08T17:00:36;12.50;99.90
21568;DHT22;10944;42.590;12.630;2023-01-08T17:03:03;12.50;99.90
21568;DHT22;10944;42.590;12.630;2023-01-08T17:05:29;12.50;99.90
21568;DHT22;10944;42.590;12.630;2023-01-08T17:07:56;12.50;99.90